sensor_id;sensor_type;location;lat;lon;timestamp;P1;durP1;ratioP1;P2;durP2;ratioP2
14141;SDS011;7151;52.246;4.820;2022-08-19T00:00:33;8.90;;;6.37;;
14141;SDS011;7151;52.246;4.820;2022-08-19T00:03:00;6.93;;;6.23;;
14141;SDS011;7151;52.246;4.820;2022-08-19T00:05:25;8.37;;;5.97;;
14141;SDS011;7151;52.246;4.820;2022-08-19T00:07:53;7.13;;;5.47;;
14141;SDS011;7151;52.246;4.820;2022-08-19T00:10:19;7.93;;;5.87;;
14141;SDS011;7151;52.246;4.820;2022-08-19T00:12:45;7.77;;;6.30;;
14141;SDS011;7151;52.246;4.820;2022-08-19T00:15:13;10.90;;;6.93;;
14141;SDS011;7151;52.246;4.820;2022-08-19T00:17:44;8.20;;;5.93;;
14141;SDS011;7151;52.246;4.820;2022-08-19T00:20:11;9.53;;;6.20;;
14141;SDS011;7151;52.246;4.820;2022-08-19T00:22:41;8.70;;;6.33;;
14141;SDS011;7151;52.246;4.820;2022-08-19T00:25:07;8.50;;;6.07;;
14141;SDS011;7151;52.246;4.820;2022-08-19T00:27:33;9.07;;;6.50;;
14141;SDS011;7151;52.246;4.820;2022-08-19T00:29:59;6.63;;;5.97;;
14141;SDS011;7151;52.246;4.820;2022-08-19T00:32:25;7.63;;;5.60;;
14141;SDS011;7151;52.246;4.820;2022-08-19T00:34:51;9.47;;;6.33;;
14141;SDS011;7151;52.246;4.820;2022-08-19T00:37:17;9.80;;;6.57;;
14141;SDS011;7151;52.246;4.820;2022-08-19T00:39:44;8.30;;;6.03;;
14141;SDS011;7151;52.246;4.820;2022-08-19T00:42:10;8.30;;;6.70;;
14141;SDS011;7151;52.246;4.820;2022-08-19T00:44:35;7.77;;;6.50;;
14141;SDS011;7151;52.246;4.820;2022-08-19T00:47:01;9.40;;;6.23;;
14141;SDS011;7151;52.246;4.820;2022-08-19T00:52:00;8.80;;;6.53;;
14141;SDS011;7151;52.246;4.820;2022-08-19T00:54:31;7.30;;;5.97;;
14141;SDS011;7151;52.246;4.820;2022-08-19T00:56:58;7.47;;;5.73;;
14141;SDS011;7151;52.246;4.820;2022-08-19T00:59:26;8.93;;;6.43;;
14141;SDS011;7151;52.246;4.820;2022-08-19T01:01:53;8.27;;;6.37;;
14141;SDS011;7151;52.246;4.820;2022-08-19T01:04:19;8.07;;;6.37;;
14141;SDS011;7151;52.246;4.820;2022-08-19T01:06:44;8.13;;;5.80;;
14141;SDS011;7151;52.246;4.820;2022-08-19T01:09:10;8.13;;;5.83;;
14141;SDS011;7151;52.246;4.820;2022-08-19T01:11:36;7.80;;;5.77;;
14141;SDS011;7151;52.246;4.820;2022-08-19T01:14:05;6.60;;;5.10;;
14141;SDS011;7151;52.246;4.820;2022-08-19T01:16:32;8.27;;;6.20;;
14141;SDS011;7151;52.246;4.820;2022-08-19T01:18:59;8.50;;;6.37;;
14141;SDS011;7151;52.246;4.820;2022-08-19T01:21:27;11.37;;;6.60;;
14141;SDS011;7151;52.246;4.820;2022-08-19T01:23:57;9.70;;;5.80;;
14141;SDS011;7151;52.246;4.820;2022-08-19T01:26:23;6.50;;;5.37;;
14141;SDS011;7151;52.246;4.820;2022-08-19T01:28:50;7.43;;;5.47;;
14141;SDS011;7151;52.246;4.820;2022-08-19T01:31:20;7.67;;;5.43;;
14141;SDS011;7151;52.246;4.820;2022-08-19T01:33:48;6.93;;;4.93;;
14141;SDS011;7151;52.246;4.820;2022-08-19T01:36:16;6.77;;;5.30;;
14141;SDS011;7151;52.246;4.820;2022-08-19T01:38:50;7.20;;;5.27;;
14141;SDS011;7151;52.246;4.820;2022-08-19T01:41:17;6.60;;;5.07;;
14141;SDS011;7151;52.246;4.820;2022-08-19T01:43:43;7.90;;;5.63;;
14141;SDS011;7151;52.246;4.820;2022-08-19T01:46:09;7.03;;;4.87;;
14141;SDS011;7151;52.246;4.820;2022-08-19T01:48:36;8.13;;;4.87;;
14141;SDS011;7151;52.246;4.820;2022-08-19T01:51:04;7.10;;;4.83;;
14141;SDS011;7151;52.246;4.820;2022-08-19T01:53:30;7.07;;;4.80;;
14141;SDS011;7151;52.246;4.820;2022-08-19T01:55:55;8.77;;;5.80;;
14141;SDS011;7151;52.246;4.820;2022-08-19T01:58:22;7.73;;;5.37;;
14141;SDS011;7151;52.246;4.820;2022-08-19T02:00:54;8.23;;;5.50;;
14141;SDS011;7151;52.246;4.820;2022-08-19T02:03:19;7.37;;;4.87;;
14141;SDS011;7151;52.246;4.820;2022-08-19T02:05:45;10.30;;;5.67;;
14141;SDS011;7151;52.246;4.820;2022-08-19T02:08:11;6.20;;;5.47;;
14141;SDS011;7151;52.246;4.820;2022-08-19T02:10:41;6.43;;;5.03;;
14141;SDS011;7151;52.246;4.820;2022-08-19T02:13:08;7.63;;;5.00;;
14141;SDS011;7151;52.246;4.820;2022-08-19T02:15:35;8.43;;;5.30;;
14141;SDS011;7151;52.246;4.820;2022-08-19T02:18:01;7.23;;;4.73;;
14141;SDS011;7151;52.246;4.820;2022-08-19T02:20:26;6.83;;;5.30;;
14141;SDS011;7151;52.246;4.820;2022-08-19T02:22:52;7.30;;;4.87;;
14141;SDS011;7151;52.246;4.820;2022-08-19T02:25:17;7.53;;;5.43;;
14141;SDS011;7151;52.246;4.820;2022-08-19T02:27:43;6.67;;;4.73;;
14141;SDS011;7151;52.246;4.820;2022-08-19T02:30:10;6.70;;;5.13;;
14141;SDS011;7151;52.246;4.820;2022-08-19T02:32:38;8.07;;;5.30;;
14141;SDS011;7151;52.246;4.820;2022-08-19T02:35:04;6.30;;;4.67;;
14141;SDS011;7151;52.246;4.820;2022-08-19T02:37:30;5.97;;;4.43;;
14141;SDS011;7151;52.246;4.820;2022-08-19T02:40:28;7.00;;;5.10;;
14141;SDS011;7151;52.246;4.820;2022-08-19T02:42:54;6.80;;;4.77;;
14141;SDS011;7151;52.246;4.820;2022-08-19T02:45:20;6.17;;;4.50;;
14141;SDS011;7151;52.246;4.820;2022-08-19T02:47:46;7.30;;;5.53;;
14141;SDS011;7151;52.246;4.820;2022-08-19T02:50:12;7.27;;;4.77;;
14141;SDS011;7151;52.246;4.820;2022-08-19T02:52:38;7.30;;;5.73;;
14141;SDS011;7151;52.246;4.820;2022-08-19T02:55:04;8.80;;;5.93;;
14141;SDS011;7151;52.246;4.820;2022-08-19T02:57:30;6.43;;;5.27;;
14141;SDS011;7151;52.246;4.820;2022-08-19T02:59:59;8.70;;;5.33;;
14141;SDS011;7151;52.246;4.820;2022-08-19T03:02:26;7.00;;;5.03;;
14141;SDS011;7151;52.246;4.820;2022-08-19T03:04:52;7.73;;;5.33;;
14141;SDS011;7151;52.246;4.820;2022-08-19T03:07:18;7.37;;;5.20;;
14141;SDS011;7151;52.246;4.820;2022-08-19T03:09:43;7.03;;;5.20;;
14141;SDS011;7151;52.246;4.820;2022-08-19T03:12:09;8.47;;;5.47;;
14141;SDS011;7151;52.246;4.820;2022-08-19T03:14:35;7.20;;;5.33;;
14141;SDS011;7151;52.246;4.820;2022-08-19T03:17:02;6.80;;;5.30;;
14141;SDS011;7151;52.246;4.820;2022-08-19T03:19:29;6.47;;;5.23;;
14141;SDS011;7151;52.246;4.820;2022-08-19T03:21:55;6.93;;;5.27;;
14141;SDS011;7151;52.246;4.820;2022-08-19T03:24:20;6.10;;;4.93;;
14141;SDS011;7151;52.246;4.820;2022-08-19T03:26:47;9.03;;;6.40;;
14141;SDS011;7151;52.246;4.820;2022-08-19T03:29:17;8.13;;;6.27;;
14141;SDS011;7151;52.246;4.820;2022-08-19T03:31:43;9.33;;;5.77;;
14141;SDS011;7151;52.246;4.820;2022-08-19T03:34:13;7.10;;;5.63;;
14141;SDS011;7151;52.246;4.820;2022-08-19T03:36:42;11.10;;;5.87;;
14141;SDS011;7151;52.246;4.820;2022-08-19T03:39:09;9.23;;;6.50;;
14141;SDS011;7151;52.246;4.820;2022-08-19T03:41:39;7.07;;;5.80;;
14141;SDS011;7151;52.246;4.820;2022-08-19T03:44:07;8.70;;;5.57;;
14141;SDS011;7151;52.246;4.820;2022-08-19T03:46:33;8.17;;;6.43;;
14141;SDS011;7151;52.246;4.820;2022-08-19T03:49:00;7.33;;;6.20;;
14141;SDS011;7151;52.246;4.820;2022-08-19T03:51:34;9.07;;;6.87;;
14141;SDS011;7151;52.246;4.820;2022-08-19T03:54:03;9.13;;;6.50;;
14141;SDS011;7151;52.246;4.820;2022-08-19T03:56:36;8.97;;;6.30;;
14141;SDS011;7151;52.246;4.820;2022-08-19T03:59:03;11.40;;;6.50;;
14141;SDS011;7151;52.246;4.820;2022-08-19T04:01:30;8.30;;;6.70;;
14141;SDS011;7151;52.246;4.820;2022-08-19T04:03:56;7.77;;;6.20;;
14141;SDS011;7151;52.246;4.820;2022-08-19T04:06:24;10.37;;;7.10;;
14141;SDS011;7151;52.246;4.820;2022-08-19T04:08:52;7.73;;;5.77;;
14141;SDS011;7151;52.246;4.820;2022-08-19T04:11:20;9.37;;;7.40;;
14141;SDS011;7151;52.246;4.820;2022-08-19T04:13:50;11.30;;;7.13;;
14141;SDS011;7151;52.246;4.820;2022-08-19T04:16:20;12.10;;;7.70;;
14141;SDS011;7151;52.246;4.820;2022-08-19T04:18:47;11.57;;;7.93;;
14141;SDS011;7151;52.246;4.820;2022-08-19T04:21:17;11.87;;;6.97;;
14141;SDS011;7151;52.246;4.820;2022-08-19T04:23:48;10.83;;;7.87;;
14141;SDS011;7151;52.246;4.820;2022-08-19T04:26:14;11.57;;;8.37;;
14141;SDS011;7151;52.246;4.820;2022-08-19T04:28:42;11.27;;;7.80;;
14141;SDS011;7151;52.246;4.820;2022-08-19T04:31:12;13.00;;;8.87;;
14141;SDS011;7151;52.246;4.820;2022-08-19T04:33:44;12.37;;;7.67;;
14141;SDS011;7151;52.246;4.820;2022-08-19T04:36:20;11.50;;;8.33;;
14141;SDS011;7151;52.246;4.820;2022-08-19T04:38:48;12.97;;;8.93;;
14141;SDS011;7151;52.246;4.820;2022-08-19T04:41:15;10.50;;;6.70;;
14141;SDS011;7151;52.246;4.820;2022-08-19T04:44:00;15.30;;;9.53;;
14141;SDS011;7151;52.246;4.820;2022-08-19T04:46:27;14.73;;;9.33;;
14141;SDS011;7151;52.246;4.820;2022-08-19T04:48:55;14.43;;;9.03;;
14141;SDS011;7151;52.246;4.820;2022-08-19T04:51:21;13.40;;;8.67;;
14141;SDS011;7151;52.246;4.820;2022-08-19T04:53:47;16.43;;;9.50;;
14141;SDS011;7151;52.246;4.820;2022-08-19T04:56:14;15.67;;;10.53;;
14141;SDS011;7151;52.246;4.820;2022-08-19T04:58:42;17.57;;;10.30;;
14141;SDS011;7151;52.246;4.820;2022-08-19T05:01:11;13.53;;;8.90;;
14141;SDS011;7151;52.246;4.820;2022-08-19T05:03:38;15.20;;;10.00;;
14141;SDS011;7151;52.246;4.820;2022-08-19T05:06:08;14.00;;;9.63;;
14141;SDS011;7151;52.246;4.820;2022-08-19T05:08:36;16.00;;;10.53;;
14141;SDS011;7151;52.246;4.820;2022-08-19T05:11:09;15.70;;;9.73;;
14141;SDS011;7151;52.246;4.820;2022-08-19T05:13:39;18.27;;;11.77;;
14141;SDS011;7151;52.246;4.820;2022-08-19T05:16:05;15.13;;;9.90;;
14141;SDS011;7151;52.246;4.820;2022-08-19T05:18:31;17.63;;;11.03;;
14141;SDS011;7151;52.246;4.820;2022-08-19T05:21:16;16.00;;;10.57;;
14141;SDS011;7151;52.246;4.820;2022-08-19T05:24:02;17.50;;;11.63;;
14141;SDS011;7151;52.246;4.820;2022-08-19T05:26:37;16.97;;;11.50;;
14141;SDS011;7151;52.246;4.820;2022-08-19T05:29:03;20.60;;;11.87;;
14141;SDS011;7151;52.246;4.820;2022-08-19T05:31:29;22.30;;;12.43;;
14141;SDS011;7151;52.246;4.820;2022-08-19T05:33:56;19.20;;;11.17;;
14141;SDS011;7151;52.246;4.820;2022-08-19T05:36:23;18.57;;;11.60;;
14141;SDS011;7151;52.246;4.820;2022-08-19T05:38:49;24.70;;;11.73;;
14141;SDS011;7151;52.246;4.820;2022-08-19T05:41:16;23.57;;;12.63;;
14141;SDS011;7151;52.246;4.820;2022-08-19T05:43:42;22.00;;;12.17;;
14141;SDS011;7151;52.246;4.820;2022-08-19T05:46:07;21.87;;;12.97;;
14141;SDS011;7151;52.246;4.820;2022-08-19T05:48:40;22.00;;;12.47;;
14141;SDS011;7151;52.246;4.820;2022-08-19T05:51:06;21.60;;;13.17;;
14141;SDS011;7151;52.246;4.820;2022-08-19T05:53:33;24.83;;;12.93;;
14141;SDS011;7151;52.246;4.820;2022-08-19T05:56:09;22.00;;;13.60;;
14141;SDS011;7151;52.246;4.820;2022-08-19T05:58:38;22.13;;;12.73;;
14141;SDS011;7151;52.246;4.820;2022-08-19T06:01:04;25.33;;;13.63;;
14141;SDS011;7151;52.246;4.820;2022-08-19T06:03:35;23.43;;;14.20;;
14141;SDS011;7151;52.246;4.820;2022-08-19T06:06:02;23.73;;;13.80;;
14141;SDS011;7151;52.246;4.820;2022-08-19T06:08:28;25.00;;;14.23;;
14141;SDS011;7151;52.246;4.820;2022-08-19T06:10:55;24.40;;;13.57;;
14141;SDS011;7151;52.246;4.820;2022-08-19T06:13:21;28.50;;;14.67;;
14141;SDS011;7151;52.246;4.820;2022-08-19T06:15:47;25.20;;;14.33;;
14141;SDS011;7151;52.246;4.820;2022-08-19T06:18:14;25.10;;;14.77;;
14141;SDS011;7151;52.246;4.820;2022-08-19T06:20:40;25.93;;;13.97;;
14141;SDS011;7151;52.246;4.820;2022-08-19T06:23:06;26.37;;;14.33;;
14141;SDS011;7151;52.246;4.820;2022-08-19T06:25:33;28.43;;;14.77;;
14141;SDS011;7151;52.246;4.820;2022-08-19T06:27:58;26.03;;;15.50;;
14141;SDS011;7151;52.246;4.820;2022-08-19T06:30:24;29.87;;;14.37;;
14141;SDS011;7151;52.246;4.820;2022-08-19T06:32:50;28.40;;;15.90;;
14141;SDS011;7151;52.246;4.820;2022-08-19T06:35:15;26.63;;;15.00;;
14141;SDS011;7151;52.246;4.820;2022-08-19T06:37:42;28.43;;;15.60;;
14141;SDS011;7151;52.246;4.820;2022-08-19T06:40:08;33.80;;;16.77;;
14141;SDS011;7151;52.246;4.820;2022-08-19T06:42:35;29.87;;;15.70;;
14141;SDS011;7151;52.246;4.820;2022-08-19T06:45:03;32.00;;;15.53;;
14141;SDS011;7151;52.246;4.820;2022-08-19T06:47:30;33.87;;;18.17;;
14141;SDS011;7151;52.246;4.820;2022-08-19T06:49:57;29.47;;;15.53;;
14141;SDS011;7151;52.246;4.820;2022-08-19T06:52:29;36.77;;;17.20;;
14141;SDS011;7151;52.246;4.820;2022-08-19T06:54:57;26.63;;;15.73;;
14141;SDS011;7151;52.246;4.820;2022-08-19T06:57:24;34.33;;;17.43;;
14141;SDS011;7151;52.246;4.820;2022-08-19T06:59:50;33.33;;;16.50;;
14141;SDS011;7151;52.246;4.820;2022-08-19T07:02:16;33.73;;;17.03;;
14141;SDS011;7151;52.246;4.820;2022-08-19T07:04:42;26.77;;;16.10;;
14141;SDS011;7151;52.246;4.820;2022-08-19T07:07:09;28.40;;;15.10;;
14141;SDS011;7151;52.246;4.820;2022-08-19T07:09:37;32.03;;;15.23;;
14141;SDS011;7151;52.246;4.820;2022-08-19T07:12:06;31.00;;;15.57;;
14141;SDS011;7151;52.246;4.820;2022-08-19T07:14:32;26.53;;;15.13;;
14141;SDS011;7151;52.246;4.820;2022-08-19T07:17:02;30.00;;;15.20;;
14141;SDS011;7151;52.246;4.820;2022-08-19T07:19:30;21.83;;;13.13;;
14141;SDS011;7151;52.246;4.820;2022-08-19T07:21:57;22.27;;;14.43;;
14141;SDS011;7151;52.246;4.820;2022-08-19T07:24:24;27.10;;;14.33;;
14141;SDS011;7151;52.246;4.820;2022-08-19T07:26:53;24.60;;;14.43;;
14141;SDS011;7151;52.246;4.820;2022-08-19T07:29:20;29.17;;;14.70;;
14141;SDS011;7151;52.246;4.820;2022-08-19T07:31:48;24.27;;;13.27;;
14141;SDS011;7151;52.246;4.820;2022-08-19T07:34:14;19.53;;;13.43;;
14141;SDS011;7151;52.246;4.820;2022-08-19T07:36:40;24.90;;;13.00;;
14141;SDS011;7151;52.246;4.820;2022-08-19T07:39:10;23.20;;;12.80;;
14141;SDS011;7151;52.246;4.820;2022-08-19T07:41:43;20.57;;;11.90;;
14141;SDS011;7151;52.246;4.820;2022-08-19T07:44:10;19.83;;;12.37;;
14141;SDS011;7151;52.246;4.820;2022-08-19T07:46:38;19.63;;;11.20;;
14141;SDS011;7151;52.246;4.820;2022-08-19T07:49:06;21.37;;;12.80;;
14141;SDS011;7151;52.246;4.820;2022-08-19T07:51:32;20.80;;;11.80;;
14141;SDS011;7151;52.246;4.820;2022-08-19T07:53:58;20.43;;;11.03;;
14141;SDS011;7151;52.246;4.820;2022-08-19T07:56:25;19.57;;;11.13;;
14141;SDS011;7151;52.246;4.820;2022-08-19T07:58:50;16.57;;;10.30;;
14141;SDS011;7151;52.246;4.820;2022-08-19T08:01:19;16.50;;;10.57;;
14141;SDS011;7151;52.246;4.820;2022-08-19T08:03:47;13.63;;;9.07;;
14141;SDS011;7151;52.246;4.820;2022-08-19T08:06:33;20.30;;;10.83;;
14141;SDS011;7151;52.246;4.820;2022-08-19T08:09:18;19.47;;;11.63;;
14141;SDS011;7151;52.246;4.820;2022-08-19T08:14:19;17.50;;;10.33;;
14141;SDS011;7151;52.246;4.820;2022-08-19T08:16:47;16.90;;;9.10;;
14141;SDS011;7151;52.246;4.820;2022-08-19T08:19:16;16.47;;;8.77;;
14141;SDS011;7151;52.246;4.820;2022-08-19T08:21:43;16.77;;;9.00;;
14141;SDS011;7151;52.246;4.820;2022-08-19T08:24:10;15.63;;;9.93;;
14141;SDS011;7151;52.246;4.820;2022-08-19T08:26:36;17.50;;;10.23;;
14141;SDS011;7151;52.246;4.820;2022-08-19T08:29:02;14.90;;;8.87;;
14141;SDS011;7151;52.246;4.820;2022-08-19T08:31:27;16.60;;;8.77;;
14141;SDS011;7151;52.246;4.820;2022-08-19T08:33:53;13.93;;;8.47;;
14141;SDS011;7151;52.246;4.820;2022-08-19T08:36:19;13.90;;;9.10;;
14141;SDS011;7151;52.246;4.820;2022-08-19T08:38:46;13.43;;;8.43;;
14141;SDS011;7151;52.246;4.820;2022-08-19T08:41:22;14.13;;;8.63;;
14141;SDS011;7151;52.246;4.820;2022-08-19T08:44:02;13.87;;;8.60;;
14141;SDS011;7151;52.246;4.820;2022-08-19T08:51:49;16.37;;;8.57;;
14141;SDS011;7151;52.246;4.820;2022-08-19T08:54:20;13.97;;;8.47;;
14141;SDS011;7151;52.246;4.820;2022-08-19T08:56:53;17.03;;;8.37;;
14141;SDS011;7151;52.246;4.820;2022-08-19T08:59:33;15.27;;;7.97;;
14141;SDS011;7151;52.246;4.820;2022-08-19T09:02:01;14.47;;;7.90;;
14141;SDS011;7151;52.246;4.820;2022-08-19T09:04:27;9.80;;;6.90;;
14141;SDS011;7151;52.246;4.820;2022-08-19T09:09:51;6.60;;;4.53;;
14141;SDS011;7151;52.246;4.820;2022-08-19T09:12:36;10.07;;;3.93;;
14141;SDS011;7151;52.246;4.820;2022-08-19T09:15:17;7.60;;;5.00;;
14141;SDS011;7151;52.246;4.820;2022-08-19T09:17:47;10.73;;;4.60;;
14141;SDS011;7151;52.246;4.820;2022-08-19T09:20:18;5.03;;;3.03;;
14141;SDS011;7151;52.246;4.820;2022-08-19T09:22:45;6.83;;;3.93;;
14141;SDS011;7151;52.246;4.820;2022-08-19T09:25:15;4.77;;;3.40;;
14141;SDS011;7151;52.246;4.820;2022-08-19T09:27:42;3.73;;;3.10;;
14141;SDS011;7151;52.246;4.820;2022-08-19T09:30:13;7.67;;;3.13;;
14141;SDS011;7151;52.246;4.820;2022-08-19T09:32:44;7.07;;;3.57;;
14141;SDS011;7151;52.246;4.820;2022-08-19T09:35:10;5.90;;;3.70;;
14141;SDS011;7151;52.246;4.820;2022-08-19T09:37:37;5.43;;;3.80;;
14141;SDS011;7151;52.246;4.820;2022-08-19T09:40:03;6.93;;;3.93;;
14141;SDS011;7151;52.246;4.820;2022-08-19T09:42:29;4.53;;;3.50;;
14141;SDS011;7151;52.246;4.820;2022-08-19T09:44:54;6.53;;;3.47;;
14141;SDS011;7151;52.246;4.820;2022-08-19T09:47:20;5.97;;;3.93;;
14141;SDS011;7151;52.246;4.820;2022-08-19T09:49:45;5.23;;;3.60;;
14141;SDS011;7151;52.246;4.820;2022-08-19T09:52:13;8.50;;;4.33;;
14141;SDS011;7151;52.246;4.820;2022-08-19T09:54:40;6.87;;;4.00;;
14141;SDS011;7151;52.246;4.820;2022-08-19T09:57:05;6.93;;;4.67;;
14141;SDS011;7151;52.246;4.820;2022-08-19T09:59:31;7.47;;;4.80;;
14141;SDS011;7151;52.246;4.820;2022-08-19T10:01:57;5.97;;;4.20;;
14141;SDS011;7151;52.246;4.820;2022-08-19T10:04:23;9.67;;;4.57;;
14141;SDS011;7151;52.246;4.820;2022-08-19T10:07:08;7.65;;;4.72;;
14141;SDS011;7151;52.246;4.820;2022-08-19T10:09:34;6.73;;;4.40;;
14141;SDS011;7151;52.246;4.820;2022-08-19T10:11:59;5.70;;;3.97;;
14141;SDS011;7151;52.246;4.820;2022-08-19T10:14:26;6.77;;;4.37;;
14141;SDS011;7151;52.246;4.820;2022-08-19T10:16:52;5.67;;;4.53;;
14141;SDS011;7151;52.246;4.820;2022-08-19T10:19:18;5.97;;;3.70;;
14141;SDS011;7151;52.246;4.820;2022-08-19T10:21:46;6.97;;;3.97;;
14141;SDS011;7151;52.246;4.820;2022-08-19T10:24:11;5.70;;;3.20;;
14141;SDS011;7151;52.246;4.820;2022-08-19T10:26:38;7.63;;;3.28;;
14141;SDS011;7151;52.246;4.820;2022-08-19T10:29:09;3.80;;;3.30;;
14141;SDS011;7151;52.246;4.820;2022-08-19T10:31:36;7.22;;;2.90;;
14141;SDS011;7151;52.246;4.820;2022-08-19T10:34:02;5.22;;;2.95;;
14141;SDS011;7151;52.246;4.820;2022-08-19T10:36:32;4.20;;;2.70;;
14141;SDS011;7151;52.246;4.820;2022-08-19T10:39:01;4.87;;;2.70;;
14141;SDS011;7151;52.246;4.820;2022-08-19T10:41:31;2.63;;;2.17;;
14141;SDS011;7151;52.246;4.820;2022-08-19T10:44:02;5.87;;;2.77;;
14141;SDS011;7151;52.246;4.820;2022-08-19T10:46:30;3.93;;;2.50;;
14141;SDS011;7151;52.246;4.820;2022-08-19T10:48:57;4.00;;;2.37;;
14141;SDS011;7151;52.246;4.820;2022-08-19T10:51:24;5.80;;;2.97;;
14141;SDS011;7151;52.246;4.820;2022-08-19T10:54:09;2.93;;;2.20;;
14141;SDS011;7151;52.246;4.820;2022-08-19T10:56:35;4.30;;;2.57;;
14141;SDS011;7151;52.246;4.820;2022-08-19T10:59:16;3.38;;;2.20;;
14141;SDS011;7151;52.246;4.820;2022-08-19T11:02:09;4.97;;;2.43;;
14141;SDS011;7151;52.246;4.820;2022-08-19T11:04:37;5.63;;;2.33;;
14141;SDS011;7151;52.246;4.820;2022-08-19T11:07:04;4.50;;;2.17;;
14141;SDS011;7151;52.246;4.820;2022-08-19T11:09:31;4.53;;;1.77;;
14141;SDS011;7151;52.246;4.820;2022-08-19T11:12:01;3.33;;;2.13;;
14141;SDS011;7151;52.246;4.820;2022-08-19T11:14:27;3.83;;;2.23;;
14141;SDS011;7151;52.246;4.820;2022-08-19T11:16:53;3.63;;;2.20;;
14141;SDS011;7151;52.246;4.820;2022-08-19T11:19:21;2.47;;;2.27;;
14141;SDS011;7151;52.246;4.820;2022-08-19T11:21:49;3.67;;;2.53;;
14141;SDS011;7151;52.246;4.820;2022-08-19T11:24:25;4.33;;;1.80;;
14141;SDS011;7151;52.246;4.820;2022-08-19T11:26:51;3.23;;;1.70;;
14141;SDS011;7151;52.246;4.820;2022-08-19T11:29:23;4.77;;;1.77;;
14141;SDS011;7151;52.246;4.820;2022-08-19T11:31:50;2.83;;;2.47;;
14141;SDS011;7151;52.246;4.820;2022-08-19T11:34:18;3.17;;;2.15;;
14141;SDS011;7151;52.246;4.820;2022-08-19T11:36:47;4.53;;;2.60;;
14141;SDS011;7151;52.246;4.820;2022-08-19T11:39:14;3.93;;;2.40;;
14141;SDS011;7151;52.246;4.820;2022-08-19T11:41:45;3.60;;;2.10;;
14141;SDS011;7151;52.246;4.820;2022-08-19T11:44:11;2.20;;;1.93;;
14141;SDS011;7151;52.246;4.820;2022-08-19T11:46:39;3.80;;;1.90;;
14141;SDS011;7151;52.246;4.820;2022-08-19T11:49:06;2.60;;;1.90;;
14141;SDS011;7151;52.246;4.820;2022-08-19T11:51:35;2.40;;;1.57;;
14141;SDS011;7151;52.246;4.820;2022-08-19T11:54:00;4.77;;;1.90;;
14141;SDS011;7151;52.246;4.820;2022-08-19T11:56:27;1.67;;;1.30;;
14141;SDS011;7151;52.246;4.820;2022-08-19T11:58:53;2.80;;;2.10;;
14141;SDS011;7151;52.246;4.820;2022-08-19T12:01:22;1.70;;;1.43;;
14141;SDS011;7151;52.246;4.820;2022-08-19T12:03:49;2.77;;;1.67;;
14141;SDS011;7151;52.246;4.820;2022-08-19T12:06:17;1.00;;;0.90;;
14141;SDS011;7151;52.246;4.820;2022-08-19T12:08:48;3.53;;;1.57;;
14141;SDS011;7151;52.246;4.820;2022-08-19T12:11:14;1.67;;;1.30;;
14141;SDS011;7151;52.246;4.820;2022-08-19T12:13:40;1.83;;;1.23;;
14141;SDS011;7151;52.246;4.820;2022-08-19T12:16:10;3.10;;;1.50;;
14141;SDS011;7151;52.246;4.820;2022-08-19T12:18:38;3.27;;;1.70;;
14141;SDS011;7151;52.246;4.820;2022-08-19T12:21:06;1.97;;;1.57;;
14141;SDS011;7151;52.246;4.820;2022-08-19T12:23:32;2.00;;;1.27;;
14141;SDS011;7151;52.246;4.820;2022-08-19T12:25:58;1.57;;;1.43;;
14141;SDS011;7151;52.246;4.820;2022-08-19T12:28:24;1.77;;;1.50;;
14141;SDS011;7151;52.246;4.820;2022-08-19T12:30:50;4.80;;;1.60;;
14141;SDS011;7151;52.246;4.820;2022-08-19T12:33:17;1.60;;;1.50;;
14141;SDS011;7151;52.246;4.820;2022-08-19T12:35:44;2.50;;;1.50;;
14141;SDS011;7151;52.246;4.820;2022-08-19T12:38:12;2.00;;;1.00;;
14141;SDS011;7151;52.246;4.820;2022-08-19T12:40:38;1.97;;;1.20;;
14141;SDS011;7151;52.246;4.820;2022-08-19T12:43:05;3.03;;;1.20;;
14141;SDS011;7151;52.246;4.820;2022-08-19T12:45:33;3.83;;;1.40;;
14141;SDS011;7151;52.246;4.820;2022-08-19T12:47:59;1.53;;;1.13;;
14141;SDS011;7151;52.246;4.820;2022-08-19T12:50:24;1.47;;;0.97;;
14141;SDS011;7151;52.246;4.820;2022-08-19T12:52:50;2.27;;;1.27;;
14141;SDS011;7151;52.246;4.820;2022-08-19T12:55:15;1.07;;;0.90;;
14141;SDS011;7151;52.246;4.820;2022-08-19T12:57:43;1.33;;;0.80;;
14141;SDS011;7151;52.246;4.820;2022-08-19T13:00:14;1.27;;;1.00;;
14141;SDS011;7151;52.246;4.820;2022-08-19T13:02:43;0.80;;;0.80;;
14141;SDS011;7151;52.246;4.820;2022-08-19T13:05:11;0.87;;;0.83;;
14141;SDS011;7151;52.246;4.820;2022-08-19T13:07:39;2.43;;;0.93;;
14141;SDS011;7151;52.246;4.820;2022-08-19T13:10:06;4.33;;;1.03;;
14141;SDS011;7151;52.246;4.820;2022-08-19T13:12:34;1.77;;;1.33;;
14141;SDS011;7151;52.246;4.820;2022-08-19T13:15:00;2.27;;;1.10;;
14141;SDS011;7151;52.246;4.820;2022-08-19T13:17:25;4.67;;;1.20;;
14141;SDS011;7151;52.246;4.820;2022-08-19T13:19:51;2.20;;;1.20;;
14141;SDS011;7151;52.246;4.820;2022-08-19T13:22:17;2.43;;;1.03;;
14141;SDS011;7151;52.246;4.820;2022-08-19T13:24:43;2.97;;;1.17;;
14141;SDS011;7151;52.246;4.820;2022-08-19T13:27:09;1.37;;;1.10;;
14141;SDS011;7151;52.246;4.820;2022-08-19T13:29:34;4.57;;;1.50;;
14141;SDS011;7151;52.246;4.820;2022-08-19T13:32:19;1.20;;;1.10;;
14141;SDS011;7151;52.246;4.820;2022-08-19T13:35:03;2.60;;;1.00;;
14141;SDS011;7151;52.246;4.820;2022-08-19T13:37:29;1.33;;;0.93;;
14141;SDS011;7151;52.246;4.820;2022-08-19T13:40:12;2.10;;;0.87;;
14141;SDS011;7151;52.246;4.820;2022-08-19T13:42:47;3.07;;;1.20;;
14141;SDS011;7151;52.246;4.820;2022-08-19T13:45:15;1.10;;;0.87;;
14141;SDS011;7151;52.246;4.820;2022-08-19T13:47:44;0.63;;;0.63;;
14141;SDS011;7151;52.246;4.820;2022-08-19T13:50:12;1.10;;;0.93;;
14141;SDS011;7151;52.246;4.820;2022-08-19T13:52:42;1.20;;;1.10;;
14141;SDS011;7151;52.246;4.820;2022-08-19T13:55:08;1.50;;;1.23;;
14141;SDS011;7151;52.246;4.820;2022-08-19T13:57:36;1.77;;;1.30;;
14141;SDS011;7151;52.246;4.820;2022-08-19T14:00:07;1.70;;;1.17;;
14141;SDS011;7151;52.246;4.820;2022-08-19T14:02:36;1.57;;;1.20;;
14141;SDS011;7151;52.246;4.820;2022-08-19T14:05:03;2.03;;;1.23;;
14141;SDS011;7151;52.246;4.820;2022-08-19T14:07:30;3.17;;;1.33;;
14141;SDS011;7151;52.246;4.820;2022-08-19T14:09:55;3.10;;;1.23;;
14141;SDS011;7151;52.246;4.820;2022-08-19T14:12:21;1.42;;;1.20;;
14141;SDS011;7151;52.246;4.820;2022-08-19T14:14:47;1.30;;;1.03;;
14141;SDS011;7151;52.246;4.820;2022-08-19T14:17:13;1.20;;;1.10;;
14141;SDS011;7151;52.246;4.820;2022-08-19T14:19:38;2.28;;;1.30;;
14141;SDS011;7151;52.246;4.820;2022-08-19T14:22:04;2.83;;;1.77;;
14141;SDS011;7151;52.246;4.820;2022-08-19T14:24:30;5.57;;;1.80;;
14141;SDS011;7151;52.246;4.820;2022-08-19T14:26:57;1.85;;;1.38;;
14141;SDS011;7151;52.246;4.820;2022-08-19T14:29:22;2.53;;;1.30;;
14141;SDS011;7151;52.246;4.820;2022-08-19T14:31:48;1.60;;;1.23;;
14141;SDS011;7151;52.246;4.820;2022-08-19T14:34:14;1.23;;;0.98;;
14141;SDS011;7151;52.246;4.820;2022-08-19T14:36:39;1.25;;;1.13;;
14141;SDS011;7151;52.246;4.820;2022-08-19T14:39:06;1.13;;;0.90;;
14141;SDS011;7151;52.246;4.820;2022-08-19T14:41:33;1.10;;;1.00;;
14141;SDS011;7151;52.246;4.820;2022-08-19T14:43:59;1.40;;;1.10;;
14141;SDS011;7151;52.246;4.820;2022-08-19T14:46:27;1.00;;;1.00;;
14141;SDS011;7151;52.246;4.820;2022-08-19T14:48:53;2.40;;;1.05;;
14141;SDS011;7151;52.246;4.820;2022-08-19T14:51:21;1.10;;;1.00;;
14141;SDS011;7151;52.246;4.820;2022-08-19T14:53:48;1.25;;;1.15;;
14141;SDS011;7151;52.246;4.820;2022-08-19T14:56:16;2.47;;;1.10;;
14141;SDS011;7151;52.246;4.820;2022-08-19T14:58:44;1.23;;;1.10;;
14141;SDS011;7151;52.246;4.820;2022-08-19T15:01:10;2.08;;;1.05;;
14141;SDS011;7151;52.246;4.820;2022-08-19T15:03:37;3.03;;;1.33;;
14141;SDS011;7151;52.246;4.820;2022-08-19T15:06:04;0.95;;;0.93;;
14141;SDS011;7151;52.246;4.820;2022-08-19T15:08:31;2.28;;;0.90;;
14141;SDS011;7151;52.246;4.820;2022-08-19T15:10:58;2.08;;;1.15;;